Pagrindinis puslapis
METAR-TAF:

METAR-TAF

Oro uostai :

Parma, Italija

platuma: 44-49-17N, ilguma: 010-17-41E, Aukštis: 50 m

Dabartinis oras

Ataskaita buvo paskelbta 3 valandos ir 32 minutes, ne 17:50 UTC
Vėjas 2 kt iš Rytų/Šiaurės Rytų
Temperatūra 21°C
Drėgmė 43%
Slėgis 1020 hPa
Matomumas 10 km arba daugiau
nėra debesų žemiau 1500 m ir nėra kamuolinių lietaus debesų

METAR: LIMP 091750Z 07002KT CAVOK 21/08 Q1020

Laikas: 23:22 (21:22 UTC)

Prognozė

Ataskaita buvo paskelbta 4 valandos ir 22 minutes, ne 17:00 UTC
Prognozė galioja nuo 09 metu 18 UTC su 10 metu 18 UTC
Vėjas 5 kt nuo kintamojo kryptimis
Matomumas 10 km arba daugiau
nėra debesų žemiau 1500 m ir nėra kamuolinių lietaus debesų

TAF: LIMP 091700Z 0918/1018 VRB05KT CAVOK

Orai ataskaitas ir orų prognozės (METAR, TAF).

turimą stotys yra geltonos ir raudonos taškus žemėlapyje.

Perkelti pele per norėdami pamatyti stoties vardą.

Tada spustelėkite, norėdami matyti oro stebėjimo ir prognozės.

Norėdami pakeisti žemėlapį: spustelėkite ant žalios mygtukų su juodo kryžiaus žemyn,; žalią mygtuką su brūkšneliu, jei norite nutolinti; arba žalių rodyklių gretimoms žemėlapius.


METAR-TAF: